createdAt,value
2022-12-03T00:00:04.071Z,-0.5
2022-12-03T00:01:01.791Z,-0.5
2022-12-03T00:02:02.245Z,-0.4
2022-12-03T00:03:02.390Z,-0.4
2022-12-03T00:04:01.970Z,-0.4
2022-12-03T00:05:01.421Z,-0.2
2022-12-03T00:06:01.471Z,-0.3
2022-12-03T00:07:01.361Z,-0.4
2022-12-03T00:08:01.456Z,-0.5
2022-12-03T00:09:01.352Z,-0.5
2022-12-03T00:10:01.461Z,-0.5
2022-12-03T00:11:01.344Z,-0.5
2022-12-03T00:12:02.422Z,-0.5
2022-12-03T00:13:02.297Z,-0.4
2022-12-03T00:14:02.379Z,-0.4
2022-12-03T00:15:02.251Z,-0.4
2022-12-03T00:16:02.342Z,-0.5
2022-12-03T00:17:01.736Z,-0.4
2022-12-03T00:18:01.895Z,-0.4
2022-12-03T00:19:01.712Z,-0.4
2022-12-03T00:20:01.807Z,-0.4
2022-12-03T00:21:01.668Z,-0.4
2022-12-03T00:22:01.819Z,-0.5
2022-12-03T00:23:01.706Z,-0.5
2022-12-03T00:24:01.794Z,-0.4
2022-12-03T00:25:01.740Z,-0.4
2022-12-03T00:26:01.882Z,-0.4
2022-12-03T00:27:01.848Z,-0.4
2022-12-03T00:28:01.882Z,-0.4
2022-12-03T00:29:02.000Z,-0.3
2022-12-03T00:30:01.881Z,-0.3
2022-12-03T00:31:01.984Z,-0.3
2022-12-03T00:32:01.322Z,-0.2
2022-12-03T00:33:01.533Z,-0.3
2022-12-03T00:34:01.375Z,-0.1
2022-12-03T00:35:01.470Z,-0.2
2022-12-03T00:36:01.354Z,-0.2
2022-12-03T00:37:01.459Z,-0.2
2022-12-03T00:38:01.332Z,-0.3
2022-12-03T00:39:02.386Z,-0.2
2022-12-03T00:40:02.289Z,-0.2
2022-12-03T00:41:02.350Z,-0.1
2022-12-03T00:42:02.224Z,-0.2
2022-12-03T00:43:02.306Z,-0.2
2022-12-03T00:44:02.172Z,-0.1
2022-12-03T00:45:02.318Z,-0.1
2022-12-03T00:46:02.238Z,0
2022-12-03T00:47:01.540Z,-0.2
2022-12-03T00:48:01.522Z,-0.1
2022-12-03T00:49:01.390Z,-0.1
2022-12-03T00:50:01.410Z,-0.2
2022-12-03T00:51:02.389Z,-0.3
2022-12-03T00:52:02.293Z,-0.3
2022-12-03T00:53:02.356Z,-0.3
2022-12-03T00:54:02.219Z,-0.2
2022-12-03T00:55:02.290Z,-0.4
2022-12-03T00:56:02.156Z,-0.4
2022-12-03T00:57:02.209Z,-0.4
2022-12-03T00:58:02.130Z,-0.3
2022-12-03T00:59:02.182Z,-0.4
2022-12-03T01:00:02.023Z,-0.4
2022-12-03T01:01:02.065Z,-0.4
2022-12-03T01:02:02.356Z,-0.4
2022-12-03T01:03:02.282Z,-0.4
2022-12-03T01:04:02.343Z,-0.3
2022-12-03T01:05:02.338Z,-0.3
2022-12-03T01:06:01.513Z,-0.3
2022-12-03T01:07:01.394Z,-0.4
2022-12-03T01:08:01.386Z,-0.2
2022-12-03T01:09:01.365Z,-0.2
2022-12-03T01:10:01.387Z,-0.1
2022-12-03T01:11:02.379Z,-0.2
2022-12-03T01:12:02.253Z,-0.2
2022-12-03T01:13:02.328Z,-0.2
2022-12-03T01:14:02.202Z,-0.1
2022-12-03T01:15:02.279Z,-0.1
2022-12-03T01:16:02.242Z,-0.2
2022-12-03T01:17:01.553Z,-0.1
2022-12-03T01:18:01.669Z,-0.2
2022-12-03T01:19:01.517Z,-0.2
2022-12-03T01:20:01.608Z,-0.2
2022-12-03T01:21:01.616Z,-0.3
2022-12-03T01:22:01.642Z,-0.3
2022-12-03T01:23:01.595Z,-0.3
2022-12-03T01:24:01.631Z,-0.3
2022-12-03T01:25:01.501Z,-0.2
2022-12-03T01:26:01.529Z,-0.1
2022-12-03T01:27:01.433Z,-0.2
2022-12-03T01:28:01.463Z,-0.1
2022-12-03T01:29:01.358Z,-0.1
2022-12-03T01:30:01.396Z,-0.3
2022-12-03T01:31:02.510Z,-0.2
2022-12-03T01:32:01.657Z,-0.2
2022-12-03T01:33:01.736Z,-0.2
2022-12-03T01:34:01.565Z,-0.2
2022-12-03T01:35:01.604Z,-0.3
2022-12-03T01:36:01.425Z,-0.2
2022-12-03T01:37:01.484Z,-0.2
2022-12-03T01:38:01.358Z,-0.3
2022-12-03T01:39:01.434Z,-0.2
2022-12-03T01:40:01.331Z,-0.3
2022-12-03T01:41:01.457Z,-0.3
2022-12-03T01:42:02.417Z,-0.3
2022-12-03T01:43:02.304Z,-0.3
2022-12-03T01:44:02.345Z,-0.3
2022-12-03T01:45:02.258Z,-0.3
2022-12-03T01:46:02.336Z,-0.1
2022-12-03T01:47:01.750Z,-0.1
2022-12-03T01:48:01.729Z,0
2022-12-03T01:49:01.612Z,-0.1
2022-12-03T01:50:01.769Z,-0.1
2022-12-03T01:51:01.632Z,-0.1
2022-12-03T01:52:01.787Z,-0.1
2022-12-03T01:53:01.767Z,-0.1
2022-12-03T01:54:01.755Z,-0.2
2022-12-03T01:55:01.818Z,-0.2
2022-12-03T01:56:01.698Z,-0.2
2022-12-03T01:57:01.687Z,-0.2
2022-12-03T01:58:01.562Z,-0.2
2022-12-03T01:59:01.638Z,-0.1
2022-12-03T02:00:01.506Z,-0.3
2022-12-03T02:01:01.546Z,-0.3
2022-12-03T02:02:01.658Z,-0.3
2022-12-03T02:03:01.716Z,-0.2
2022-12-03T02:04:01.902Z,-0.2
2022-12-03T02:05:01.873Z,-0.2
2022-12-03T02:06:01.865Z,-0.2
2022-12-03T02:07:01.954Z,-0.1
2022-12-03T02:08:02.064Z,-0.1
2022-12-03T02:09:02.201Z,-0.1
2022-12-03T02:10:02.296Z,-0.2
2022-12-03T02:11:02.168Z,-0.1
2022-12-03T02:12:02.248Z,-0.2
2022-12-03T02:13:02.113Z,-0.3
2022-12-03T02:14:02.203Z,-0.3
2022-12-03T02:15:02.070Z,-0.2
2022-12-03T02:16:02.256Z,-0.2
2022-12-03T02:17:01.433Z,-0.1
2022-12-03T02:18:01.480Z,-0.1
2022-12-03T02:19:01.362Z,-0.1
2022-12-03T02:20:01.399Z,-0.1
2022-12-03T02:21:02.380Z,0
2022-12-03T02:22:02.240Z,0.1
2022-12-03T02:23:02.343Z,0.1
2022-12-03T02:24:02.222Z,0
2022-12-03T02:25:02.310Z,0
2022-12-03T02:26:02.168Z,-0.1
2022-12-03T02:27:02.205Z,0
2022-12-03T02:28:02.106Z,0
2022-12-03T02:29:02.243Z,-0.1
2022-12-03T02:30:02.096Z,0
2022-12-03T02:31:02.252Z,-0.1
2022-12-03T02:32:02.321Z,-0.2
2022-12-03T02:33:02.407Z,-0.1
2022-12-03T02:34:02.264Z,-0.1
2022-12-03T02:35:02.354Z,-0.1
2022-12-03T02:36:03.718Z,-0.1
2022-12-03T02:37:01.927Z,-0.1
2022-12-03T02:38:01.958Z,-0.1
2022-12-03T02:39:01.876Z,-0.1
2022-12-03T02:40:01.869Z,0
2022-12-03T02:41:01.910Z,-0.1
2022-12-03T02:42:01.777Z,0
2022-12-03T02:43:01.791Z,0
2022-12-03T02:44:01.880Z,0
2022-12-03T02:45:05.035Z,0
2022-12-03T02:46:01.608Z,0
2022-12-03T02:47:02.011Z,0.1
2022-12-03T02:48:01.943Z,0
2022-12-03T02:49:01.859Z,0
2022-12-03T02:50:01.951Z,0.1
2022-12-03T02:51:01.807Z,0
2022-12-03T02:52:01.873Z,0.2
2022-12-03T02:53:01.780Z,0.1
2022-12-03T02:54:01.650Z,0.1
2022-12-03T02:55:01.735Z,0.2
2022-12-03T02:56:01.573Z,0.3
2022-12-03T02:57:01.690Z,0.2
2022-12-03T02:58:01.603Z,0.1
2022-12-03T02:59:01.464Z,0.1
2022-12-03T03:00:01.369Z,0
2022-12-03T03:01:01.535Z,0.1
2022-12-03T03:02:01.822Z,0.1
2022-12-03T03:03:01.876Z,0.1
2022-12-03T03:04:01.929Z,0.2
2022-12-03T03:05:01.811Z,0.2
2022-12-03T03:06:01.778Z,0.2
2022-12-03T03:07:01.798Z,0.2
2022-12-03T03:08:01.733Z,0.1
2022-12-03T03:09:01.925Z,0
2022-12-03T03:10:01.866Z,0
2022-12-03T03:11:01.789Z,0
2022-12-03T03:12:01.701Z,0.1
2022-12-03T03:13:01.755Z,0.1
2022-12-03T03:14:01.621Z,-0.1
2022-12-03T03:15:01.713Z,0
2022-12-03T03:16:01.639Z,0.1
2022-12-03T03:17:01.774Z,0.2
2022-12-03T03:18:01.844Z,0.2
2022-12-03T03:19:01.667Z,0.1
2022-12-03T03:20:01.677Z,0
2022-12-03T03:21:01.583Z,0.1
2022-12-03T03:22:01.593Z,0
2022-12-03T03:23:01.424Z,0
2022-12-03T03:24:01.470Z,0.1
2022-12-03T03:25:01.291Z,0.1
2022-12-03T03:26:02.394Z,0.1
2022-12-03T03:27:02.277Z,0.2
2022-12-03T03:28:02.345Z,0.1
2022-12-03T03:29:02.215Z,0.1
2022-12-03T03:30:02.316Z,0.2
2022-12-03T03:31:02.204Z,0.2
2022-12-03T03:32:01.351Z,0.2
2022-12-03T03:33:01.446Z,0.2
2022-12-03T03:34:01.338Z,0.1
2022-12-03T03:35:02.413Z,0
2022-12-03T03:36:02.298Z,0
2022-12-03T03:37:02.379Z,0
2022-12-03T03:38:02.242Z,-0.1
2022-12-03T03:39:02.260Z,-0.1
2022-12-03T03:40:02.186Z,-0.1
2022-12-03T03:41:02.253Z,-0.1
2022-12-03T03:42:02.125Z,-0.1
2022-12-03T03:43:02.204Z,-0.1
2022-12-03T03:44:02.086Z,-0.1
2022-12-03T03:45:02.158Z,-0.1
2022-12-03T03:46:02.078Z,-0.1
2022-12-03T03:47:01.376Z,-0.1
2022-12-03T03:48:01.453Z,-0.1
2022-12-03T03:49:01.395Z,0
2022-12-03T03:50:01.417Z,-0.1
2022-12-03T03:51:02.337Z,0
2022-12-03T03:52:02.201Z,0
2022-12-03T03:53:02.234Z,-0.1
2022-12-03T03:54:02.186Z,-0.1
2022-12-03T03:55:02.230Z,0
2022-12-03T03:56:02.089Z,0.1
2022-12-03T03:57:02.137Z,0
2022-12-03T03:58:01.981Z,0
2022-12-03T03:59:01.949Z,0
2022-12-03T04:00:02.007Z,0
2022-12-03T04:01:01.935Z,0
2022-12-03T04:02:02.076Z,0
2022-12-03T04:03:02.144Z,0.1
2022-12-03T04:04:02.090Z,0
2022-12-03T04:05:02.290Z,0
2022-12-03T04:06:02.213Z,0
2022-12-03T04:07:02.135Z,0
2022-12-03T04:08:02.232Z,0
2022-12-03T04:09:02.213Z,0
2022-12-03T04:10:02.267Z,0.1
2022-12-03T04:11:02.158Z,0.1
2022-12-03T04:12:02.197Z,0.1
2022-12-03T04:13:02.066Z,0
2022-12-03T04:14:02.136Z,0.1
2022-12-03T04:15:02.032Z,0.1
2022-12-03T04:16:02.071Z,0.1
2022-12-03T04:17:01.412Z,0
2022-12-03T04:18:01.612Z,0
2022-12-03T04:19:01.357Z,0
2022-12-03T04:20:01.386Z,0
2022-12-03T04:21:02.380Z,0
2022-12-03T04:22:02.351Z,0
2022-12-03T04:23:02.226Z,0
2022-12-03T04:24:02.189Z,0
2022-12-03T04:25:02.260Z,0
2022-12-03T04:26:02.123Z,0
2022-12-03T04:27:02.150Z,0
2022-12-03T04:28:02.099Z,-0.1
2022-12-03T04:29:02.163Z,0
2022-12-03T04:30:02.039Z,0
2022-12-03T04:31:02.175Z,0
2022-12-03T04:32:01.414Z,0
2022-12-03T04:33:01.471Z,-0.1
2022-12-03T04:34:01.410Z,-0.1
2022-12-03T04:35:01.469Z,-0.1
2022-12-03T04:36:01.481Z,0
2022-12-03T04:37:01.529Z,0
2022-12-03T04:38:01.383Z,0
2022-12-03T04:39:01.415Z,0
2022-12-03T04:40:01.327Z,0
2022-12-03T04:41:02.322Z,-0.1
2022-12-03T04:42:02.230Z,-0.1
2022-12-03T04:43:02.314Z,-0.1
2022-12-03T04:44:02.202Z,-0.1
2022-12-03T04:45:02.254Z,-0.1
2022-12-03T04:46:02.255Z,-0.1
2022-12-03T04:47:01.481Z,-0.1
2022-12-03T04:48:01.507Z,0
2022-12-03T04:49:01.389Z,0
2022-12-03T04:50:01.426Z,0
2022-12-03T04:51:02.402Z,0
2022-12-03T04:52:02.276Z,0
2022-12-03T04:53:02.336Z,0
2022-12-03T04:54:02.209Z,0
2022-12-03T04:55:02.297Z,-0.1
2022-12-03T04:56:02.170Z,-0.1
2022-12-03T04:57:02.245Z,-0.1
2022-12-03T04:58:02.099Z,-0.1
2022-12-03T04:59:02.142Z,0
2022-12-03T05:00:02.062Z,0
2022-12-03T05:01:02.153Z,-0.1
2022-12-03T05:02:02.127Z,0.1
2022-12-03T05:03:02.180Z,0.1
2022-12-03T05:04:02.357Z,0
2022-12-03T05:05:02.200Z,0
2022-12-03T05:06:02.278Z,-0.1
2022-12-03T05:07:02.134Z,-0.1
2022-12-03T05:08:02.340Z,-0.1
2022-12-03T05:09:01.481Z,-0.1
2022-12-03T05:10:01.339Z,-0.1
2022-12-03T05:11:02.377Z,-0.1
2022-12-03T05:12:02.222Z,0
2022-12-03T05:13:02.308Z,0
2022-12-03T05:14:02.204Z,-0.1
2022-12-03T05:15:02.249Z,-0.1
2022-12-03T05:16:02.112Z,-0.1
2022-12-03T05:17:01.448Z,-0.1
2022-12-03T05:18:01.376Z,0
2022-12-03T05:19:02.418Z,0
2022-12-03T05:20:02.315Z,0
2022-12-03T05:21:02.326Z,0
2022-12-03T05:22:02.199Z,0
2022-12-03T05:23:02.272Z,0
2022-12-03T05:24:02.146Z,-0.1
2022-12-03T05:25:02.243Z,-0.1
2022-12-03T05:26:02.136Z,-0.1
2022-12-03T05:27:02.185Z,-0.1
2022-12-03T05:28:02.042Z,-0.2
2022-12-03T05:29:02.054Z,-0.1
2022-12-03T05:30:01.914Z,-0.2
2022-12-03T05:31:01.993Z,-0.2
2022-12-03T05:32:02.267Z,-0.2
2022-12-03T05:33:01.402Z,-0.2
2022-12-03T05:34:01.338Z,-0.2
2022-12-03T05:35:02.402Z,-0.2
2022-12-03T05:36:02.238Z,-0.2
2022-12-03T05:37:02.282Z,-0.2
2022-12-03T05:38:02.132Z,-0.2
2022-12-03T05:39:02.197Z,-0.2
2022-12-03T05:40:02.057Z,-0.1
2022-12-03T05:41:02.082Z,-0.1
2022-12-03T05:42:01.902Z,-0.1
2022-12-03T05:43:01.833Z,-0.1
2022-12-03T05:44:01.971Z,-0.1
2022-12-03T05:45:01.825Z,-0.1
2022-12-03T05:46:01.825Z,-0.2
2022-12-03T05:47:02.127Z,-0.2
2022-12-03T05:48:02.174Z,-0.1
2022-12-03T05:49:02.007Z,-0.2
2022-12-03T05:50:02.072Z,-0.1
2022-12-03T05:51:01.902Z,-0.1
2022-12-03T05:52:01.841Z,-0.1
2022-12-03T05:53:01.892Z,-0.1
2022-12-03T05:54:01.731Z,-0.1
2022-12-03T05:55:01.706Z,0
2022-12-03T05:56:01.541Z,-0.1
2022-12-03T05:57:01.538Z,-0.1
2022-12-03T05:58:01.360Z,-0.1
2022-12-03T05:59:01.440Z,-0.1
2022-12-03T06:00:02.387Z,-0.1
2022-12-03T06:01:02.236Z,-0.1
2022-12-03T06:02:01.515Z,-0.1
2022-12-03T06:03:01.584Z,-0.2
2022-12-03T06:04:01.658Z,-0.2
2022-12-03T06:05:01.719Z,-0.2
2022-12-03T06:06:01.771Z,-0.2
2022-12-03T06:07:01.664Z,-0.2
2022-12-03T06:08:01.804Z,-0.2
2022-12-03T06:09:01.785Z,-0.2
2022-12-03T06:10:01.740Z,-0.2
2022-12-03T06:11:01.757Z,-0.2
2022-12-03T06:12:01.554Z,-0.2
2022-12-03T06:13:01.527Z,-0.3
2022-12-03T06:14:01.401Z,-0.3
2022-12-03T06:15:01.466Z,-0.3
2022-12-03T06:16:02.492Z,-0.4
2022-12-03T06:17:01.414Z,-0.4
2022-12-03T06:18:01.458Z,-0.3
2022-12-03T06:19:02.418Z,-0.3
2022-12-03T06:20:02.255Z,-0.3
2022-12-03T06:21:02.272Z,-0.3
2022-12-03T06:22:02.136Z,-0.4
2022-12-03T06:23:02.173Z,-0.3
2022-12-03T06:24:02.015Z,-0.3
2022-12-03T06:25:06.302Z,-0.4
2022-12-03T06:26:02.029Z,-0.4
2022-12-03T06:27:01.992Z,-0.4
2022-12-03T06:28:01.952Z,-0.4
2022-12-03T06:29:01.835Z,-0.4
2022-12-03T06:30:01.774Z,-0.4
2022-12-03T06:31:01.798Z,-0.4
2022-12-03T06:32:02.124Z,-0.4
2022-12-03T06:33:02.067Z,-0.4
2022-12-03T06:34:02.128Z,-0.4
2022-12-03T06:35:01.994Z,-0.4
2022-12-03T06:36:01.943Z,-0.4
2022-12-03T06:37:01.969Z,-0.4
2022-12-03T06:38:01.793Z,-0.4
2022-12-03T06:39:01.767Z,-0.4
2022-12-03T06:40:01.756Z,-0.4
2022-12-03T06:41:01.590Z,-0.5
2022-12-03T06:42:01.598Z,-0.5
2022-12-03T06:43:01.400Z,-0.5
2022-12-03T06:44:01.451Z,-0.4
2022-12-03T06:45:02.404Z,-0.4
2022-12-03T06:46:02.240Z,-0.5
2022-12-03T06:47:01.769Z,-0.5
2022-12-03T06:48:01.790Z,-0.5
2022-12-03T06:49:01.646Z,-0.5
2022-12-03T06:50:01.664Z,-0.5
2022-12-03T06:51:01.649Z,-0.5
2022-12-03T06:52:01.447Z,-0.4
2022-12-03T06:53:01.400Z,-0.4
2022-12-03T06:54:01.449Z,-0.5
2022-12-03T06:55:02.412Z,-0.5
2022-12-03T06:56:02.270Z,-0.5
2022-12-03T06:57:02.242Z,-0.5
2022-12-03T06:58:02.121Z,-0.5
2022-12-03T06:59:02.121Z,-0.4
2022-12-03T07:00:01.995Z,-0.4
2022-12-03T07:01:01.965Z,-0.5
2022-12-03T07:02:02.261Z,-0.4
2022-12-03T07:03:01.460Z,-0.5
2022-12-03T07:04:01.462Z,-0.5
2022-12-03T07:05:01.399Z,-0.4
2022-12-03T07:06:01.928Z,-0.5
2022-12-03T07:07:01.922Z,-0.5
2022-12-03T07:08:02.073Z,-0.5
2022-12-03T07:09:02.061Z,-0.6
2022-12-03T07:10:02.021Z,-0.6
2022-12-03T07:11:02.066Z,-0.6
2022-12-03T07:12:01.918Z,-0.5
2022-12-03T07:13:01.825Z,-0.5
2022-12-03T07:14:05.339Z,-0.5
2022-12-03T07:15:01.584Z,-0.5
2022-12-03T07:16:01.633Z,-0.5
2022-12-03T07:17:01.651Z,-0.5
2022-12-03T07:18:01.666Z,-0.5
2022-12-03T07:19:01.547Z,-0.5
2022-12-03T07:20:01.608Z,-0.5
2022-12-03T07:21:01.377Z,-0.5
2022-12-03T07:22:01.421Z,-0.5
2022-12-03T07:23:02.387Z,-0.5
2022-12-03T07:24:02.223Z,-0.5
2022-12-03T07:25:02.282Z,-0.5
2022-12-03T07:26:02.114Z,-0.5
2022-12-03T07:27:02.141Z,-0.6
2022-12-03T07:28:02.005Z,-0.6
2022-12-03T07:29:01.988Z,-0.6
2022-12-03T07:30:01.947Z,-0.6
2022-12-03T07:31:01.946Z,-0.6
2022-12-03T07:32:01.322Z,-0.5
2022-12-03T07:33:02.363Z,-0.6
2022-12-03T07:34:02.245Z,-0.6
2022-12-03T07:35:02.295Z,-0.6
2022-12-03T07:36:02.164Z,-0.7
2022-12-03T07:37:02.206Z,-0.7
2022-12-03T07:38:01.993Z,-0.7
2022-12-03T07:39:02.007Z,-0.7
2022-12-03T07:40:01.860Z,-0.7
2022-12-03T07:41:01.708Z,-0.6
2022-12-03T07:42:01.746Z,-0.6
2022-12-03T07:43:01.588Z,-0.6
2022-12-03T07:44:01.529Z,-0.6
2022-12-03T07:45:01.370Z,-0.7
2022-12-03T07:46:01.396Z,-0.6
2022-12-03T07:47:01.567Z,-0.7
2022-12-03T07:48:01.448Z,-0.7
2022-12-03T07:49:01.326Z,-0.7
2022-12-03T07:50:02.377Z,-0.7
2022-12-03T07:51:02.262Z,-0.7
2022-12-03T07:52:02.246Z,-0.7
2022-12-03T07:53:02.147Z,-0.8
2022-12-03T07:54:02.196Z,-0.8
2022-12-03T07:55:02.038Z,-0.8
2022-12-03T07:56:02.089Z,-0.8
2022-12-03T07:57:02.120Z,-0.8
2022-12-03T07:58:01.936Z,-0.9
2022-12-03T07:59:02.023Z,-0.8
2022-12-03T08:00:01.859Z,-0.8
2022-12-03T08:01:01.871Z,-0.8
2022-12-03T08:02:02.281Z,-0.8
2022-12-03T08:03:02.310Z,-0.8
2022-12-03T08:04:02.234Z,-0.7
2022-12-03T08:05:02.255Z,-0.8
2022-12-03T08:06:02.106Z,-0.8
2022-12-03T08:07:02.133Z,-0.7
2022-12-03T08:08:02.041Z,-0.7
2022-12-03T08:09:02.104Z,-0.7
2022-12-03T08:10:02.155Z,-0.8
2022-12-03T08:11:01.989Z,-0.8
2022-12-03T08:12:02.051Z,-0.7
2022-12-03T08:13:01.819Z,-0.7
2022-12-03T08:14:01.827Z,-0.8
2022-12-03T08:15:01.704Z,-0.8
2022-12-03T08:16:01.642Z,-0.8
2022-12-03T08:17:01.799Z,-0.7
2022-12-03T08:18:01.873Z,-0.8
2022-12-03T08:19:01.734Z,-0.8
2022-12-03T08:20:01.632Z,-0.8
2022-12-03T08:21:01.677Z,-0.7
2022-12-03T08:22:01.723Z,-0.8
2022-12-03T08:23:01.518Z,-0.8
2022-12-03T08:24:01.377Z,-0.8
2022-12-03T08:25:01.437Z,-0.8
2022-12-03T08:26:02.390Z,-0.8
2022-12-03T08:27:02.219Z,-0.7
2022-12-03T08:28:02.279Z,-0.8
2022-12-03T08:29:02.128Z,-0.7
2022-12-03T08:30:02.163Z,-0.8
2022-12-03T08:31:02.021Z,-0.7
2022-12-03T08:32:02.253Z,-0.7
2022-12-03T08:33:02.256Z,-0.7
2022-12-03T08:34:02.071Z,-0.7
2022-12-03T08:35:02.123Z,-0.7
2022-12-03T08:36:02.041Z,-0.7
2022-12-03T08:37:01.931Z,-0.7
2022-12-03T08:38:01.924Z,-0.7
2022-12-03T08:39:01.740Z,-0.7
2022-12-03T08:40:01.621Z,-0.7
2022-12-03T08:41:01.660Z,-0.7
2022-12-03T08:42:01.571Z,-0.7
2022-12-03T08:43:01.408Z,-0.7
2022-12-03T08:44:01.345Z,-0.7
2022-12-03T08:45:02.415Z,-0.7
2022-12-03T08:46:02.290Z,-0.7
2022-12-03T08:47:01.678Z,-0.7
2022-12-03T08:48:01.821Z,-0.7
2022-12-03T08:49:01.628Z,-0.7
2022-12-03T08:50:01.617Z,-0.6
2022-12-03T08:51:01.654Z,-0.5
2022-12-03T08:52:01.495Z,-0.5
2022-12-03T08:53:01.504Z,-0.4
2022-12-03T08:54:02.046Z,-0.5
2022-12-03T08:55:02.139Z,-0.5
2022-12-03T08:56:02.185Z,-0.5
2022-12-03T08:57:02.031Z,-0.5
2022-12-03T08:58:01.986Z,-0.5
2022-12-03T08:59:01.875Z,-0.3
2022-12-03T09:00:01.850Z,-0.4
2022-12-03T09:01:01.937Z,-0.4
2022-12-03T09:02:02.039Z,-0.5
2022-12-03T09:03:01.942Z,-0.4
2022-12-03T09:04:02.005Z,-0.4
2022-12-03T09:05:01.921Z,-0.4
2022-12-03T09:06:02.084Z,-0.3
2022-12-03T09:07:02.146Z,-0.3
2022-12-03T09:08:02.101Z,-0.3
2022-12-03T09:09:06.487Z,-0.3
2022-12-03T09:10:01.583Z,-0.3
2022-12-03T09:11:01.580Z,-0.3
2022-12-03T09:12:01.382Z,-0.2
2022-12-03T09:13:01.410Z,-0.3
2022-12-03T09:14:02.374Z,-0.4
2022-12-03T09:15:02.231Z,-0.5
2022-12-03T09:16:02.250Z,-0.5
2022-12-03T09:17:01.461Z,-0.5
2022-12-03T09:18:01.542Z,-0.5
2022-12-03T09:19:01.376Z,-0.6
2022-12-03T09:20:01.361Z,-0.6
2022-12-03T09:21:02.342Z,-0.5
2022-12-03T09:22:02.215Z,-0.6
2022-12-03T09:23:02.252Z,-0.6
2022-12-03T09:24:02.086Z,-0.5
2022-12-03T09:25:02.144Z,-0.5
2022-12-03T09:26:01.927Z,-0.5
2022-12-03T09:27:01.897Z,-0.5
2022-12-03T09:28:01.896Z,-0.5
2022-12-03T09:29:01.675Z,-0.4
2022-12-03T09:30:01.732Z,-0.5
2022-12-03T09:31:01.537Z,-0.5
2022-12-03T09:32:01.887Z,-0.5
2022-12-03T09:33:01.934Z,-0.5
2022-12-03T09:34:01.825Z,-0.4
2022-12-03T09:35:01.719Z,-0.5
2022-12-03T09:36:01.757Z,-0.5
2022-12-03T09:37:01.597Z,-0.5
2022-12-03T09:38:01.647Z,-0.5
2022-12-03T09:39:01.497Z,-0.4
2022-12-03T09:40:01.484Z,-0.4
2022-12-03T09:41:01.327Z,-0.4
2022-12-03T09:42:02.352Z,-0.5
2022-12-03T09:43:02.170Z,-0.4
2022-12-03T09:44:04.637Z,-0.4
2022-12-03T09:45:02.008Z,-0.3
2022-12-03T09:46:02.237Z,-0.4
2022-12-03T09:47:01.352Z,-0.4
2022-12-03T09:48:02.369Z,-0.4
2022-12-03T09:49:02.196Z,-0.5
2022-12-03T09:50:02.227Z,-0.4
2022-12-03T09:51:02.069Z,-0.4
2022-12-03T09:52:02.068Z,-0.3
2022-12-03T09:53:01.855Z,-0.3
2022-12-03T09:54:02.305Z,-0.4
2022-12-03T09:55:02.378Z,-0.3
2022-12-03T09:56:02.254Z,-0.3
2022-12-03T09:57:02.248Z,-0.3
2022-12-03T09:58:02.097Z,-0.3
2022-12-03T09:59:02.162Z,-0.2
2022-12-03T10:00:01.958Z,-0.3
2022-12-03T10:01:01.947Z,-0.3
2022-12-03T10:02:02.337Z,-0.3
2022-12-03T10:03:01.487Z,-0.3
2022-12-03T10:04:01.407Z,-0.4
2022-12-03T10:05:02.417Z,-0.4
2022-12-03T10:06:01.352Z,-0.4
2022-12-03T10:07:02.390Z,-0.4
2022-12-03T10:08:02.306Z,-0.4
2022-12-03T10:09:02.303Z,-0.4
2022-12-03T10:10:02.144Z,-0.4
2022-12-03T10:11:02.181Z,-0.3
2022-12-03T10:12:01.974Z,-0.3
2022-12-03T10:13:02.002Z,-0.3
2022-12-03T10:14:01.786Z,-0.4
2022-12-03T10:15:01.721Z,-0.3
2022-12-03T10:16:01.750Z,-0.3
2022-12-03T10:17:01.906Z,-0.3
2022-12-03T10:18:01.931Z,-0.2
2022-12-03T10:19:01.972Z,-0.2
2022-12-03T10:20:01.772Z,-0.2
2022-12-03T10:21:01.720Z,-0.1
2022-12-03T10:22:01.730Z,-0.1
2022-12-03T10:23:01.560Z,-0.2
2022-12-03T10:24:01.519Z,-0.2
2022-12-03T10:25:01.397Z,-0.1
2022-12-03T10:26:01.453Z,-0.1
2022-12-03T10:27:02.392Z,0
2022-12-03T10:28:02.239Z,0.1
2022-12-03T10:29:02.273Z,0.1
2022-12-03T10:30:02.142Z,0
2022-12-03T10:31:02.199Z,0.1
2022-12-03T10:32:01.412Z,0
2022-12-03T10:33:01.459Z,0.1
2022-12-03T10:34:02.354Z,0.1
2022-12-03T10:35:02.284Z,0.1
2022-12-03T10:36:02.300Z,0.1
2022-12-03T10:37:02.155Z,0.1
2022-12-03T10:38:02.205Z,0.1
2022-12-03T10:39:02.045Z,0.1
2022-12-03T10:40:02.110Z,0.3
2022-12-03T10:41:01.981Z,0.3
2022-12-03T10:42:01.827Z,0.2
2022-12-03T10:43:01.821Z,0.2
2022-12-03T10:44:01.721Z,0.3
2022-12-03T10:45:01.769Z,0.4
2022-12-03T10:46:04.028Z,0.3
2022-12-03T10:47:02.008Z,0.3
2022-12-03T10:48:02.184Z,0.3
2022-12-03T10:49:02.035Z,0.3
2022-12-03T10:50:02.083Z,0.3
2022-12-03T10:51:01.915Z,0.2
2022-12-03T10:52:01.890Z,0.2
2022-12-03T10:53:01.806Z,0.2
2022-12-03T10:54:01.632Z,0.2
2022-12-03T10:55:01.667Z,0.1
2022-12-03T10:56:01.551Z,0.1
2022-12-03T10:57:01.540Z,0.1
2022-12-03T10:58:01.382Z,0.3
2022-12-03T10:59:02.365Z,0.2
2022-12-03T11:00:02.269Z,0.2
2022-12-03T11:01:02.302Z,0.2
2022-12-03T11:02:01.659Z,0.2
2022-12-03T11:03:01.761Z,0.3
2022-12-03T11:04:01.683Z,0.3
2022-12-03T11:05:01.620Z,0.3
2022-12-03T11:06:01.667Z,0.3
2022-12-03T11:07:01.471Z,0.3
2022-12-03T11:08:01.490Z,0.2
2022-12-03T11:09:05.397Z,0.3
2022-12-03T11:10:01.805Z,0.4
2022-12-03T11:11:01.842Z,0.3
2022-12-03T11:12:01.686Z,0.4
2022-12-03T11:13:01.715Z,0.3
2022-12-03T11:14:01.582Z,0.4
2022-12-03T11:15:01.588Z,0.4
2022-12-03T11:16:01.505Z,0.4
2022-12-03T11:17:02.054Z,0.4
2022-12-03T11:18:02.056Z,0.5
2022-12-03T11:19:01.940Z,0.5
2022-12-03T11:20:01.879Z,0.5
2022-12-03T11:21:01.806Z,0.5
2022-12-03T11:22:01.706Z,0.5
2022-12-03T11:23:01.656Z,0.5
2022-12-03T11:24:01.527Z,0.6
2022-12-03T11:25:01.518Z,0.6
2022-12-03T11:26:01.401Z,0.5
2022-12-03T11:27:02.349Z,0.5
2022-12-03T11:28:02.220Z,0.6
2022-12-03T11:29:02.296Z,0.6
2022-12-03T11:30:02.128Z,0.5
2022-12-03T11:31:02.262Z,0.4
2022-12-03T11:32:01.355Z,0.5
2022-12-03T11:33:02.351Z,0.5
2022-12-03T11:34:02.252Z,0.5
2022-12-03T11:35:02.308Z,0.6
2022-12-03T11:36:02.143Z,0.7
2022-12-03T11:37:02.265Z,0.6
2022-12-03T11:38:02.031Z,0.6
2022-12-03T11:39:01.999Z,0.6
2022-12-03T11:40:01.899Z,0.5
2022-12-03T11:41:01.859Z,0.4
2022-12-03T11:42:01.957Z,0.6
2022-12-03T11:43:01.827Z,0.3
2022-12-03T11:44:01.741Z,0.6
2022-12-03T11:45:01.803Z,0.5
2022-12-03T11:46:04.336Z,0.5
2022-12-03T11:47:02.048Z,0.6
2022-12-03T11:48:02.399Z,0.7
2022-12-03T11:49:02.224Z,0.6
2022-12-03T11:50:02.296Z,0.6
2022-12-03T11:51:02.128Z,0.7
2022-12-03T11:52:02.230Z,0.7
2022-12-03T11:53:02.005Z,0.5
2022-12-03T11:54:01.899Z,0.5
2022-12-03T11:55:01.833Z,0.6
2022-12-03T11:56:04.468Z,0.5
2022-12-03T11:57:01.555Z,0.6
2022-12-03T11:58:01.511Z,0.6
2022-12-03T11:59:01.363Z,0.8
2022-12-03T12:00:01.547Z,0.7
2022-12-03T12:01:01.397Z,0.8
2022-12-03T12:02:02.247Z,0.8
2022-12-03T12:03:02.340Z,0.8
2022-12-03T12:04:01.390Z,0.8
2022-12-03T12:05:02.398Z,0.8
2022-12-03T12:06:02.247Z,0.8
2022-12-03T12:07:02.304Z,0.7
2022-12-03T12:08:02.226Z,0.7
2022-12-03T12:09:01.453Z,0.7
2022-12-03T12:10:02.415Z,0.7
2022-12-03T12:11:02.282Z,0.5
2022-12-03T12:12:02.303Z,0.5
2022-12-03T12:13:02.134Z,0.5
2022-12-03T12:14:02.150Z,0.4
2022-12-03T12:15:02.002Z,0.5
2022-12-03T12:16:01.955Z,0.5
2022-12-03T12:17:02.183Z,0.5
2022-12-03T12:18:02.174Z,0.5
2022-12-03T12:19:02.017Z,0.4
2022-12-03T12:20:02.046Z,0.5
2022-12-03T12:21:01.937Z,0.6
2022-12-03T12:22:02.001Z,0.5
2022-12-03T12:23:01.869Z,0.5
2022-12-03T12:24:01.727Z,0.5
2022-12-03T12:25:01.805Z,0.5
2022-12-03T12:26:01.645Z,0.5
2022-12-03T12:27:01.831Z,0.5
2022-12-03T12:28:01.598Z,0.5
2022-12-03T12:29:01.769Z,0.5
2022-12-03T12:30:01.488Z,0.4
2022-12-03T12:31:01.562Z,0.5
2022-12-03T12:32:01.768Z,0.5
2022-12-03T12:33:01.976Z,0.5
2022-12-03T12:34:02.039Z,0.5
2022-12-03T12:35:01.862Z,0.9
2022-12-03T12:36:01.857Z,1
2022-12-03T12:37:01.865Z,1.1
2022-12-03T12:38:01.797Z,1
2022-12-03T12:39:01.711Z,0.9
2022-12-03T12:40:01.743Z,1
2022-12-03T12:41:01.636Z,0.9
2022-12-03T12:42:01.589Z,0.9
2022-12-03T12:43:04.273Z,0.9
2022-12-03T12:44:02.282Z,0.9
2022-12-03T12:45:02.336Z,0.8
2022-12-03T12:46:13.805Z,0.8
2022-12-03T12:47:02.194Z,0.8
2022-12-03T12:48:02.230Z,0.6
2022-12-03T12:49:02.111Z,0.6
2022-12-03T12:50:02.157Z,0.6
2022-12-03T12:51:02.021Z,0.7
2022-12-03T12:52:02.084Z,0.6
2022-12-03T12:53:01.937Z,0.5
2022-12-03T12:54:01.887Z,0.4
2022-12-03T12:55:05.027Z,0.6
2022-12-03T12:56:02.250Z,0.5
2022-12-03T12:57:02.136Z,0.6
2022-12-03T12:58:02.229Z,0.6
2022-12-03T12:59:02.112Z,0.5
2022-12-03T13:00:02.167Z,0.6
2022-12-03T13:01:02.118Z,0.5
2022-12-03T13:02:03.469Z,0.6
2022-12-03T13:03:01.903Z,0.6
2022-12-03T13:04:01.948Z,0.6
2022-12-03T13:05:01.805Z,0.7
2022-12-03T13:06:02.056Z,0.7
2022-12-03T13:07:02.027Z,0.7
2022-12-03T13:08:05.930Z,0.8
2022-12-03T13:09:02.198Z,0.7
2022-12-03T13:10:02.194Z,0.7
2022-12-03T13:11:02.099Z,0.7
2022-12-03T13:12:02.073Z,0.7
2022-12-03T13:13:01.946Z,0.8
2022-12-03T13:14:01.961Z,0.7
2022-12-03T13:15:02.155Z,0.7
2022-12-03T13:16:01.902Z,0.6
2022-12-03T13:17:02.140Z,0.6
2022-12-03T13:18:02.146Z,0.6
2022-12-03T13:19:02.061Z,0.6
2022-12-03T13:20:07.376Z,0.5
2022-12-03T13:21:01.898Z,0.5
2022-12-03T13:22:02.015Z,0.5
2022-12-03T13:23:01.884Z,0.5
2022-12-03T13:24:01.768Z,0.5
2022-12-03T13:25:01.736Z,0.5
2022-12-03T13:26:09.437Z,0.5
2022-12-03T13:27:01.352Z,0.5
2022-12-03T13:28:02.519Z,0.5
2022-12-03T13:29:02.286Z,0.5
2022-12-03T13:30:02.481Z,0.5
2022-12-03T13:31:02.288Z,0.5
2022-12-03T13:32:01.694Z,0.5
2022-12-03T13:33:01.770Z,0.6
2022-12-03T13:34:01.905Z,0.6
2022-12-03T13:35:01.660Z,0.5